Time,TemperatureF,DewpointF,PressureIn,WindDirection,WindDirectionDegrees,WindSpeedMPH,WindSpeedGustMPH,Humidity,HourlyPrecipIn,Conditions,Clouds,dailyrainin,SoftwareType,DateUTC
2013-01-07 00:00:00,53.2,52.1,30.16,North,0,0.0,0.0,96,0.00,-RA,,0.00,WeatherDisplay:10.37,2013-01-07 05:00:00,
2013-01-07 00:02:00,53.2,52.1,30.16,North,0,0.0,0.0,96,0.00,-RA,,0.00,WeatherDisplay:10.37,2013-01-07 05:02:00,
2013-01-07 00:07:00,53.2,52.1,30.16,North,0,0.0,0.0,96,0.00,-RA,,0.00,WeatherDisplay:10.37,2013-01-07 05:07:00,
2013-01-07 00:12:00,53.2,52.1,30.16,North,0,0.0,0.0,96,0.00,OVC,,0.00,WeatherDisplay:10.37,2013-01-07 05:12:00,
2013-01-07 00:17:00,53.4,52.3,30.15,North,0,0.0,1.1,96,0.00,OVC,,0.00,WeatherDisplay:10.37,2013-01-07 05:17:00,
2013-01-07 00:22:00,53.2,52.4,30.15,North,0,0.0,0.0,97,0.00,OVC,,0.00,WeatherDisplay:10.37,2013-01-07 05:22:00,
2013-01-07 00:27:00,53.4,52.6,30.15,North,0,0.0,0.0,97,0.00,OVC,,0.00,WeatherDisplay:10.37,2013-01-07 05:27:00,
2013-01-07 00:32:00,53.2,52.4,30.15,North,0,0.0,0.0,97,0.00,OVC,,0.00,WeatherDisplay:10.37,2013-01-07 05:32:00,
2013-01-07 00:37:00,53.2,52.4,30.15,North,0,0.0,0.0,97,0.00,OVC,,0.00,WeatherDisplay:10.37,2013-01-07 05:37:00,
2013-01-07 00:41:00,53.1,52.2,30.15,North,0,0.0,0.0,97,0.00,OVC,,0.00,WeatherDisplay:10.37,2013-01-07 05:41:00,
2013-01-07 00:46:00,52.9,52.1,30.16,North,0,0.0,0.0,97,0.00,OVC,,0.00,WeatherDisplay:10.37,2013-01-07 05:46:00,
2013-01-07 00:51:00,52.7,51.9,30.16,North,0,0.0,0.0,97,0.00,OVC,,0.00,WeatherDisplay:10.37,2013-01-07 05:51:00,
2013-01-07 00:56:00,52.5,51.7,30.15,North,0,0.0,0.0,97,0.00,OVC,,0.00,WeatherDisplay:10.37,2013-01-07 05:56:00,
2013-01-07 01:01:00,52.5,51.7,30.16,North,0,0.5,2.3,97,0.00,OVC,,0.00,WeatherDisplay:10.37,2013-01-07 06:01:00,
2013-01-07 01:06:00,52.2,51.3,30.15,North,0,1.6,5.8,97,0.00,OVC,,0.00,WeatherDisplay:10.37,2013-01-07 06:06:00,
2013-01-07 01:11:00,51.6,50.5,30.15,North,0,0.3,2.3,96,0.00,OVC,,0.00,WeatherDisplay:10.37,2013-01-07 06:11:00,
2013-01-07 01:16:00,51.4,50.3,30.15,North,0,0.1,2.3,96,0.00,OVC,,0.00,WeatherDisplay:10.37,2013-01-07 06:16:00,
2013-01-07 01:21:00,51.4,50.3,30.15,North,0,0.3,2.3,96,0.00,OVC,,0.00,WeatherDisplay:10.37,2013-01-07 06:21:00,
2013-01-07 01:26:00,50.9,49.8,30.16,North,0,0.6,2.3,96,0.00,OVC,,0.00,WeatherDisplay:10.37,2013-01-07 06:26:00,
2013-01-07 01:31:00,50.7,49.6,30.15,North,0,0.0,1.1,96,0.00,OVC,,0.00,WeatherDisplay:10.37,2013-01-07 06:31:00,
2013-01-07 01:36:00,50.5,49.4,30.16,North,0,0.0,0.0,96,0.00,OVC,,0.00,WeatherDisplay:10.37,2013-01-07 06:36:00,
2013-01-07 01:41:00,50.5,49.4,30.16,North,0,0.0,0.0,96,0.00,OVC,,0.00,WeatherDisplay:10.37,2013-01-07 06:41:00,
2013-01-07 01:46:00,50.4,49.3,30.15,North,0,0.0,0.0,96,0.00,OVC,,0.00,WeatherDisplay:10.37,2013-01-07 06:46:00,
2013-01-07 01:51:00,50.2,48.8,30.15,North,0,0.0,0.0,95,0.00,OVC,,0.00,WeatherDisplay:10.37,2013-01-07 06:51:00,
2013-01-07 01:56:00,50.2,49.1,30.15,North,0,0.0,0.0,96,0.00,OVC,,0.00,WeatherDisplay:10.37,2013-01-07 06:56:00,
2013-01-07 02:01:00,50.2,49.1,30.15,North,0,0.0,0.0,96,0.00,OVC,,0.00,WeatherDisplay:10.37,2013-01-07 07:01:00,
2013-01-07 02:06:00,50.2,49.1,30.15,North,0,0.0,0.0,96,0.00,OVC,,0.00,WeatherDisplay:10.37,2013-01-07 07:06:00,
2013-01-07 02:11:00,50.4,49.3,30.15,North,0,0.0,0.0,96,0.00,OVC,,0.00,WeatherDisplay:10.37,2013-01-07 07:11:00,
2013-01-07 02:16:00,50.4,49.0,30.15,North,0,0.0,0.0,95,0.00,OVC,,0.00,WeatherDisplay:10.37,2013-01-07 07:16:00,
2013-01-07 02:21:00,50.4,49.0,30.15,North,0,0.4,2.3,95,0.00,OVC,,0.00,WeatherDisplay:10.37,2013-01-07 07:21:00,
2013-01-07 02:26:00,50.2,48.8,30.15,North,0,0.0,0.0,95,0.00,OVC,,0.00,WeatherDisplay:10.37,2013-01-07 07:26:00,
2013-01-07 02:31:00,50.2,48.8,30.15,North,0,0.2,1.1,95,0.00,OVC,,0.00,WeatherDisplay:10.37,2013-01-07 07:31:00,
2013-01-07 02:36:00,50.2,49.1,30.15,North,0,0.0,0.0,96,0.00,OVC,,0.00,WeatherDisplay:10.37,2013-01-07 07:36:00,
2013-01-07 02:41:00,50.2,49.1,30.15,North,0,0.5,4.6,96,0.00,OVC,,0.00,WeatherDisplay:10.37,2013-01-07 07:41:00,
2013-01-07 02:46:00,50.2,48.8,30.15,North,0,0.5,2.3,95,0.00,OVC,,0.00,WeatherDisplay:10.37,2013-01-07 07:46:00,
2013-01-07 02:51:00,50.2,48.8,30.15,North,0,0.4,5.8,95,0.00,OVC,,0.00,WeatherDisplay:10.37,2013-01-07 07:51:00,
2013-01-07 02:56:00,50.4,49.0,30.15,North,0,0.1,2.3,95,0.00,OVC,,0.00,WeatherDisplay:10.37,2013-01-07 07:56:00,
2013-01-07 03:01:00,50.4,49.0,30.15,North,0,2.6,5.8,95,0.00,BKN,,0.00,WeatherDisplay:10.37,2013-01-07 08:01:00,
2013-01-07 03:06:00,50.4,48.7,30.15,North,0,0.4,2.3,94,0.00,BKN,,0.00,WeatherDisplay:10.37,2013-01-07 08:06:00,
2013-01-07 03:11:00,50.4,48.7,30.15,North,0,0.9,4.6,94,0.00,BKN,,0.00,WeatherDisplay:10.37,2013-01-07 08:11:00,
2013-01-07 03:16:00,50.4,48.7,30.15,North,0,0.5,4.2,94,0.00,BKN,,0.00,WeatherDisplay:10.37,2013-01-07 08:16:00,
2013-01-07 03:21:00,50.5,48.6,30.15,North,0,0.9,5.8,93,0.00,BKN,,0.00,WeatherDisplay:10.37,2013-01-07 08:21:00,
2013-01-07 03:26:00,50.5,48.6,30.15,North,0,1.3,5.8,93,0.00,BKN,,0.00,WeatherDisplay:10.37,2013-01-07 08:26:00,
2013-01-07 03:31:00,50.4,48.4,30.16,North,0,0.2,2.8,93,0.00,BKN,,0.00,WeatherDisplay:10.37,2013-01-07 08:31:00,
2013-01-07 03:36:00,50.5,48.3,30.16,North,0,0.6,4.6,92,0.00,BKN,,0.00,WeatherDisplay:10.37,2013-01-07 08:36:00,
2013-01-07 03:41:00,50.4,47.8,30.16,NE,45,3.4,8.1,91,0.00,BKN,,0.00,WeatherDisplay:10.37,2013-01-07 08:41:00,
2013-01-07 03:46:00,50.5,47.7,30.16,North,0,1.6,8.1,90,0.00,BKN,,0.00,WeatherDisplay:10.37,2013-01-07 08:46:00,
2013-01-07 03:51:00,50.5,47.7,30.16,North,0,1.4,4.6,90,0.00,BKN,,0.00,WeatherDisplay:10.37,2013-01-07 08:51:00,
2013-01-07 03:56:00,50.5,47.4,30.16,North,0,0.2,2.3,89,0.00,BKN,,0.00,WeatherDisplay:10.37,2013-01-07 08:56:00,
2013-01-07 04:01:00,50.5,47.7,30.16,North,0,1.4,4.2,90,0.00,BKN,,0.00,WeatherDisplay:10.37,2013-01-07 09:01:00,
2013-01-07 04:06:00,50.4,47.5,30.16,North,0,2.2,5.6,90,0.00,BKN,,0.00,WeatherDisplay:10.37,2013-01-07 09:06:00,
2013-01-07 04:11:00,50.4,47.2,30.16,NW,315,2.6,8.1,89,0.00,BKN,,0.00,WeatherDisplay:10.37,2013-01-07 09:11:00,
2013-01-07 04:16:00,50.5,47.4,30.16,North,0,1.1,2.8,89,0.00,BKN,,0.00,WeatherDisplay:10.37,2013-01-07 09:16:00,
2013-01-07 04:21:00,50.2,46.8,30.16,North,0,0.0,2.3,88,0.00,BKN,,0.00,WeatherDisplay:10.37,2013-01-07 09:21:00,
2013-01-07 04:26:00,50.2,47.1,30.16,North,0,1.9,5.8,89,0.00,BKN,,0.00,WeatherDisplay:10.37,2013-01-07 09:26:00,
2013-01-07 04:31:00,50.2,46.8,30.16,North,0,1.9,5.8,88,0.00,BKN,,0.00,WeatherDisplay:10.37,2013-01-07 09:31:00,
2013-01-07 04:36:00,50.2,46.8,30.16,NW,315,2.0,5.8,88,0.00,BKN,,0.00,WeatherDisplay:10.37,2013-01-07 09:36:00,
2013-01-07 04:41:00,49.8,46.4,30.16,North,0,1.0,2.3,88,0.00,BKN,,0.00,WeatherDisplay:10.37,2013-01-07 09:41:00,
2013-01-07 04:46:00,49.8,46.4,30.17,North,0,1.0,4.6,88,0.00,BKN,,0.00,WeatherDisplay:10.37,2013-01-07 09:46:00,
2013-01-07 04:51:00,49.6,45.9,30.16,NW,315,0.7,5.8,87,0.00,BKN,,0.00,WeatherDisplay:10.37,2013-01-07 09:51:00,
2013-01-07 04:56:00,49.6,45.9,30.16,North,0,1.6,2.8,87,0.00,BKN,,0.00,WeatherDisplay:10.37,2013-01-07 09:56:00,
2013-01-07 05:01:00,49.3,45.6,30.16,North,0,0.9,2.8,87,0.00,BKN,,0.00,WeatherDisplay:10.37,2013-01-07 10:01:00,
2013-01-07 05:06:00,49.1,45.1,30.17,North,0,0.4,11.5,86,0.00,BKN,,0.00,WeatherDisplay:10.37,2013-01-07 10:06:00,
2013-01-07 05:11:00,49.1,45.1,30.17,North,0,2.3,4.6,86,0.00,BKN,,0.00,WeatherDisplay:10.37,2013-01-07 10:11:00,
2013-01-07 05:16:00,49.1,44.8,30.18,North,0,2.2,5.8,85,0.00,BKN,,0.00,WeatherDisplay:10.37,2013-01-07 10:16:00,
2013-01-07 05:21:00,49.1,44.8,30.18,North,0,1.5,5.8,85,0.00,BKN,,0.00,WeatherDisplay:10.37,2013-01-07 10:21:00,
2013-01-07 05:26:00,48.9,44.6,30.18,North,0,1.1,4.6,85,0.00,BKN,,0.00,WeatherDisplay:10.37,2013-01-07 10:26:00,
2013-01-07 05:31:00,48.7,44.7,30.18,North,0,2.2,5.6,86,0.00,BKN,,0.00,WeatherDisplay:10.37,2013-01-07 10:31:00,
2013-01-07 05:36:00,48.7,44.7,30.18,North,0,1.3,8.1,86,0.00,BKN,,0.00,WeatherDisplay:10.37,2013-01-07 10:36:00,
2013-01-07 05:41:00,48.6,44.6,30.18,NW,315,1.6,5.8,86,0.00,BKN,,0.00,WeatherDisplay:10.37,2013-01-07 10:41:00,
2013-01-07 05:46:00,48.4,44.4,30.18,North,0,1.7,5.8,86,0.00,BKN,,0.00,WeatherDisplay:10.37,2013-01-07 10:46:00,
2013-01-07 05:51:00,48.4,44.7,30.18,NE,45,0.9,5.8,87,0.00,BKN,,0.00,WeatherDisplay:10.37,2013-01-07 10:51:00,
2013-01-07 05:56:00,48.4,44.7,30.19,North,0,1.2,4.6,87,0.00,BKN,,0.00,WeatherDisplay:10.37,2013-01-07 10:56:00,
2013-01-07 06:01:00,48.0,44.3,30.19,NE,45,1.8,5.8,87,0.00,BKN,,0.00,WeatherDisplay:10.37,2013-01-07 11:01:00,
2013-01-07 06:06:00,48.0,44.0,30.19,NE,45,3.0,5.8,86,0.00,BKN,,0.00,WeatherDisplay:10.37,2013-01-07 11:06:00,
2013-01-07 06:11:00,48.0,44.3,30.19,North,0,2.2,4.2,87,0.00,BKN,,0.00,WeatherDisplay:10.37,2013-01-07 11:11:00,
2013-01-07 06:16:00,48.0,44.3,30.18,North,0,0.3,5.8,87,0.00,BKN,,0.00,WeatherDisplay:10.37,2013-01-07 11:16:00,
2013-01-07 06:21:00,47.8,44.2,30.19,North,0,0.6,6.9,87,0.00,BKN,,0.00,WeatherDisplay:10.37,2013-01-07 11:21:00,
2013-01-07 06:26:00,47.8,44.2,30.18,North,0,0.0,1.1,87,0.00,BKN,,0.00,WeatherDisplay:10.37,2013-01-07 11:26:00,
2013-01-07 06:31:00,47.8,44.2,30.19,North,0,1.5,2.8,87,0.00,BKN,,0.00,WeatherDisplay:10.37,2013-01-07 11:31:00,
2013-01-07 06:36:00,47.8,44.2,30.19,North,0,0.1,1.4,87,0.00,BKN,,0.00,WeatherDisplay:10.37,2013-01-07 11:36:00,
2013-01-07 06:41:00,47.7,44.3,30.19,North,0,1.2,5.8,88,0.00,BKN,,0.00,WeatherDisplay:10.37,2013-01-07 11:41:00,
2013-01-07 06:46:00,47.5,44.1,30.20,North,0,0.3,0.0,88,0.00,BKN,,0.00,WeatherDisplay:10.37,2013-01-07 11:46:00,
2013-01-07 06:51:00,47.5,44.1,30.20,North,0,0.0,2.3,88,0.00,BKN,,0.00,WeatherDisplay:10.37,2013-01-07 11:51:00,
2013-01-07 06:56:00,47.5,44.1,30.20,North,0,0.7,2.3,88,0.00,BKN,,0.00,WeatherDisplay:10.37,2013-01-07 11:56:00,
2013-01-07 07:01:00,47.5,44.1,30.20,North,0,0.7,6.9,88,0.00,BKN,,0.00,WeatherDisplay:10.37,2013-01-07 12:01:00,
2013-01-07 07:06:00,47.5,44.1,30.20,North,0,1.5,5.8,88,0.00,BKN,,0.00,WeatherDisplay:10.37,2013-01-07 12:06:00,
2013-01-07 07:11:00,47.5,44.1,30.20,North,0,0.6,2.3,88,0.00,BKN,,0.00,WeatherDisplay:10.37,2013-01-07 12:11:00,
2013-01-07 07:16:00,47.5,44.1,30.21,North,0,0.0,2.3,88,0.00,BKN,,0.00,WeatherDisplay:10.37,2013-01-07 12:16:00,
2013-01-07 07:21:00,47.5,44.1,30.20,North,0,0.1,2.8,88,0.00,BKN,,0.00,WeatherDisplay:10.37,2013-01-07 12:21:00,
2013-01-07 07:26:00,47.5,44.1,30.20,North,0,0.5,4.6,88,0.00,BKN,,0.00,WeatherDisplay:10.37,2013-01-07 12:26:00,
2013-01-07 07:31:00,47.5,44.1,30.20,North,0,0.0,2.8,88,0.00,BKN,,0.00,WeatherDisplay:10.37,2013-01-07 12:31:00,
2013-01-07 07:36:00,47.5,44.1,30.21,North,0,0.2,1.4,88,0.00,BKN,,0.00,WeatherDisplay:10.37,2013-01-07 12:36:00,
2013-01-07 07:41:00,47.5,44.1,30.21,North,0,0.0,2.3,88,0.00,BKN,,0.00,WeatherDisplay:10.37,2013-01-07 12:41:00,
2013-01-07 07:46:00,47.7,44.3,30.22,North,0,0.7,2.3,88,0.00,BKN,,0.00,WeatherDisplay:10.37,2013-01-07 12:46:00,
2013-01-07 07:51:00,47.8,44.5,30.21,North,0,0.3,2.3,88,0.00,BKN,,0.00,WeatherDisplay:10.37,2013-01-07 12:51:00,
2013-01-07 07:56:00,47.8,44.5,30.21,North,0,0.0,5.8,88,0.00,BKN,,0.00,WeatherDisplay:10.37,2013-01-07 12:56:00,
2013-01-07 08:01:00,47.8,44.5,30.21,North,0,0.9,2.8,88,0.00,BKN,,0.00,WeatherDisplay:10.37,2013-01-07 13:01:00,
2013-01-07 08:06:00,48.4,44.7,30.22,NE,45,0.1,2.3,87,0.00,BKN,,0.00,WeatherDisplay:10.37,2013-01-07 13:06:00,
2013-01-07 08:11:00,48.4,44.7,30.22,NE,45,0.2,2.3,87,0.00,BKN,,0.00,WeatherDisplay:10.37,2013-01-07 13:11:00,
2013-01-07 08:16:00,48.6,44.9,30.23,NE,45,0.5,5.8,87,0.00,BKN,,0.00,WeatherDisplay:10.37,2013-01-07 13:16:00,
2013-01-07 08:21:00,48.7,45.0,30.23,NE,45,0.0,5.8,87,0.00,BKN,,0.00,WeatherDisplay:10.37,2013-01-07 13:21:00,
2013-01-07 08:26:00,48.9,44.9,30.23,North,0,0.5,2.3,86,0.00,BKN,,0.00,WeatherDisplay:10.37,2013-01-07 13:26:00,
2013-01-07 08:31:00,48.9,44.9,30.23,NE,45,1.0,2.8,86,0.00,BKN,,0.00,WeatherDisplay:10.37,2013-01-07 13:31:00,
2013-01-07 08:36:00,48.9,44.9,30.23,North,0,1.0,5.8,86,0.00,BKN,,0.00,WeatherDisplay:10.37,2013-01-07 13:36:00,
2013-01-07 08:41:00,49.3,45.0,30.23,North,0,1.1,5.8,85,0.00,BKN,,0.00,WeatherDisplay:10.37,2013-01-07 13:41:00,
2013-01-07 08:46:00,49.6,45.3,30.23,North,0,1.9,8.1,85,0.00,BKN,,0.00,WeatherDisplay:10.37,2013-01-07 13:46:00,
2013-01-07 08:51:00,49.8,45.8,30.23,NE,45,0.9,4.6,86,0.00,BKN,,0.00,WeatherDisplay:10.37,2013-01-07 13:51:00,
2013-01-07 08:56:00,50.2,45.5,30.23,NE,45,2.1,5.8,84,0.00,BKN,,0.00,WeatherDisplay:10.37,2013-01-07 13:56:00,
2013-01-07 09:01:00,50.5,46.2,30.23,North,0,1.6,8.1,85,0.00,BKN,,0.00,WeatherDisplay:10.37,2013-01-07 14:01:00,
2013-01-07 09:06:00,50.5,46.2,30.24,North,0,2.3,5.8,85,0.00,BKN,,0.00,WeatherDisplay:10.37,2013-01-07 14:06:00,
2013-01-07 09:11:00,50.7,46.1,30.24,NW,315,2.2,5.8,84,0.00,BKN,,0.00,WeatherDisplay:10.37,2013-01-07 14:11:00,
2013-01-07 09:15:00,50.9,46.6,30.24,North,0,2.5,5.8,85,0.00,BKN,,0.00,WeatherDisplay:10.37,2013-01-07 14:15:00,
2013-01-07 09:20:00,50.9,46.6,30.24,NE,45,3.0,5.8,85,0.00,BKN,,0.00,WeatherDisplay:10.37,2013-01-07 14:20:00,
2013-01-07 09:25:00,50.9,46.2,30.25,NE,45,1.9,5.8,84,0.00,BKN,,0.00,WeatherDisplay:10.37,2013-01-07 14:25:00,
2013-01-07 09:30:00,50.7,46.4,30.24,North,0,1.3,5.8,85,0.00,BKN,,0.00,WeatherDisplay:10.37,2013-01-07 14:30:00,
2013-01-07 09:35:00,50.9,46.2,30.24,North,0,1.3,6.9,84,0.00,BKN,,0.00,WeatherDisplay:10.37,2013-01-07 14:35:00,
2013-01-07 09:40:00,51.1,46.4,30.24,North,0,1.8,11.5,84,0.00,BKN,,0.00,WeatherDisplay:10.37,2013-01-07 14:40:00,
2013-01-07 09:45:00,51.4,47.1,30.25,NE,45,0.3,2.3,85,0.00,BKN,,0.00,WeatherDisplay:10.37,2013-01-07 14:45:00,
2013-01-07 09:50:00,51.4,46.8,30.24,North,0,1.1,5.8,84,0.00,BKN,,0.00,WeatherDisplay:10.37,2013-01-07 14:50:00,
2013-01-07 09:55:00,51.4,47.1,30.24,North,0,0.9,2.8,85,0.00,BKN,,0.00,WeatherDisplay:10.37,2013-01-07 14:55:00,
2013-01-07 10:00:00,51.8,47.1,30.25,NE,45,2.1,5.8,84,0.00,BKN,,0.00,WeatherDisplay:10.37,2013-01-07 15:00:00,
2013-01-07 10:05:00,52.0,47.3,30.25,North,0,1.6,2.8,84,0.00,BKN,,0.00,WeatherDisplay:10.37,2013-01-07 15:05:00,
2013-01-07 10:10:00,52.0,47.3,30.25,NE,45,2.6,5.8,84,0.00,BKN,,0.00,WeatherDisplay:10.37,2013-01-07 15:10:00,
2013-01-07 10:15:00,52.5,47.5,30.24,NE,45,2.3,5.8,83,0.00,BKN,,0.00,WeatherDisplay:10.37,2013-01-07 15:15:00,
2013-01-07 10:20:00,52.7,47.7,30.25,NE,45,2.0,5.8,83,0.00,BKN,,0.00,WeatherDisplay:10.37,2013-01-07 15:20:00,
2013-01-07 10:25:00,53.2,48.5,30.25,NE,45,1.8,5.8,84,0.00,BKN,,0.00,WeatherDisplay:10.37,2013-01-07 15:25:00,
2013-01-07 10:30:00,53.4,48.1,30.26,North,0,1.2,5.8,82,0.00,BKN,,0.00,WeatherDisplay:10.37,2013-01-07 15:30:00,
2013-01-07 10:35:00,54.0,48.6,30.26,North,0,2.2,5.8,82,0.00,BKN,,0.00,WeatherDisplay:10.37,2013-01-07 15:35:00,
2013-01-07 10:40:00,54.1,48.8,30.25,NE,45,1.8,2.8,82,0.00,BKN,,0.00,WeatherDisplay:10.37,2013-01-07 15:40:00,
2013-01-07 10:45:00,54.1,48.8,30.25,NE,45,2.3,5.8,82,0.00,BKN,,0.00,WeatherDisplay:10.37,2013-01-07 15:45:00,
2013-01-07 10:50:00,54.1,48.8,30.25,North,0,2.4,8.1,82,0.00,BKN,,0.00,WeatherDisplay:10.37,2013-01-07 15:50:00,
2013-01-07 10:55:00,53.8,48.7,30.25,NE,45,0.5,2.3,83,0.00,BKN,,0.00,WeatherDisplay:10.37,2013-01-07 15:55:00,
2013-01-07 11:00:00,54.1,49.1,30.26,North,0,0.0,1.1,83,0.00,BKN,,0.00,WeatherDisplay:10.37,2013-01-07 16:00:00,
2013-01-07 11:05:00,55.0,49.6,30.26,North,0,2.6,11.5,82,0.00,BKN,,0.00,WeatherDisplay:10.37,2013-01-07 16:05:00,
2013-01-07 11:10:00,55.6,49.8,30.25,North,0,0.5,2.3,81,0.00,BKN,,0.00,WeatherDisplay:10.37,2013-01-07 16:10:00,
2013-01-07 11:15:00,56.3,50.2,30.25,NE,45,2.0,5.8,80,0.00,BKN,,0.00,WeatherDisplay:10.37,2013-01-07 16:15:00,
2013-01-07 11:20:00,56.3,50.2,30.25,NE,45,0.8,5.8,80,0.00,BKN,,0.00,WeatherDisplay:10.37,2013-01-07 16:20:00,
2013-01-07 11:25:00,56.3,50.2,30.24,North,0,2.2,5.8,80,0.00,BKN,,0.00,WeatherDisplay:10.37,2013-01-07 16:25:00,
2013-01-07 11:30:00,56.8,50.7,30.24,NE,45,0.2,2.3,80,0.00,BKN,,0.00,WeatherDisplay:10.37,2013-01-07 16:30:00,
2013-01-07 11:35:00,57.2,51.1,30.24,NE,45,2.7,5.8,80,0.00,BKN,,0.00,WeatherDisplay:10.37,2013-01-07 16:35:00,
2013-01-07 11:40:00,57.7,51.3,30.24,NE,45,0.9,2.8,79,0.00,BKN,,0.00,WeatherDisplay:10.37,2013-01-07 16:40:00,
2013-01-07 11:45:00,58.3,51.8,30.24,NW,315,0.2,2.8,79,0.00,BKN,,0.00,WeatherDisplay:10.37,2013-01-07 16:45:00,
2013-01-07 11:50:00,58.8,52.3,30.24,NE,45,1.4,2.8,79,0.00,BKN,,0.00,WeatherDisplay:10.37,2013-01-07 16:50:00,
2013-01-07 11:55:00,59.5,52.3,30.23,NE,45,2.3,5.8,77,0.00,BKN,,0.00,WeatherDisplay:10.37,2013-01-07 16:55:00,
2013-01-07 12:00:00,60.4,53.2,30.23,NE,45,2.5,6.9,77,0.00,BKN,,0.00,WeatherDisplay:10.37,2013-01-07 17:00:00,
2013-01-07 12:05:00,61.0,53.4,30.23,NE,45,0.5,5.8,76,0.00,BKN,,0.00,WeatherDisplay:10.37,2013-01-07 17:05:00,
2013-01-07 12:10:00,61.0,53.0,30.23,NE,45,1.3,2.3,75,0.00,BKN,,0.00,WeatherDisplay:10.37,2013-01-07 17:10:00,
2013-01-07 12:15:00,60.4,52.8,30.22,NW,315,1.5,5.8,76,0.00,BKN,,0.00,WeatherDisplay:10.37,2013-01-07 17:15:00,
2013-01-07 12:20:00,59.9,53.0,30.22,North,0,1.9,5.8,78,0.00,BKN,,0.00,WeatherDisplay:10.37,2013-01-07 17:20:00,
2013-01-07 12:25:00,60.1,52.8,30.21,NW,315,4.0,8.1,77,0.00,BKN,,0.00,WeatherDisplay:10.37,2013-01-07 17:25:00,
2013-01-07 12:30:00,60.4,53.5,30.21,NE,45,2.8,5.8,78,0.00,BKN,,0.00,WeatherDisplay:10.37,2013-01-07 17:30:00,
2013-01-07 12:35:00,60.8,53.5,30.21,North,0,2.0,5.8,77,0.00,BKN,,0.00,WeatherDisplay:10.37,2013-01-07 17:35:00,
2013-01-07 12:40:00,60.6,53.7,30.21,NE,45,2.4,5.8,78,0.00,BKN,,0.00,WeatherDisplay:10.37,2013-01-07 17:40:00,
2013-01-07 12:45:00,61.3,54.4,30.20,NE,45,1.9,5.8,78,0.00,BKN,,0.00,WeatherDisplay:10.37,2013-01-07 17:45:00,
2013-01-07 12:50:00,61.5,53.5,30.20,North,0,2.2,5.8,75,0.00,BKN,,0.00,WeatherDisplay:10.37,2013-01-07 17:50:00,
2013-01-07 12:55:00,61.3,54.1,30.20,NE,45,1.8,11.5,77,0.00,BKN,,0.00,WeatherDisplay:10.37,2013-01-07 17:55:00,
2013-01-07 13:00:00,61.7,54.4,30.20,NE,45,1.0,5.8,77,0.00,BKN,,0.00,WeatherDisplay:10.37,2013-01-07 18:00:00,
2013-01-07 13:05:00,62.2,54.6,30.20,North,0,2.9,5.8,76,0.00,BKN,,0.00,WeatherDisplay:10.37,2013-01-07 18:05:00,
2013-01-07 13:10:00,63.0,54.9,30.19,North,0,2.3,5.8,75,0.00,BKN,,0.00,WeatherDisplay:10.37,2013-01-07 18:10:00,
2013-01-07 13:15:00,63.1,54.3,30.19,North,0,2.4,8.1,73,0.00,BKN,,0.00,WeatherDisplay:10.37,2013-01-07 18:15:00,
2013-01-07 13:20:00,63.3,55.3,30.19,North,0,1.9,5.8,75,0.00,BKN,,0.00,WeatherDisplay:10.37,2013-01-07 18:20:00,
2013-01-07 13:25:00,63.7,55.6,30.19,NE,45,2.7,5.8,75,0.00,BKN,,0.00,WeatherDisplay:10.37,2013-01-07 18:25:00,
2013-01-07 13:30:00,64.2,55.4,30.19,NW,315,2.1,5.8,73,0.00,BKN,,0.00,WeatherDisplay:10.37,2013-01-07 18:30:00,
2013-01-07 13:35:00,64.2,55.0,30.19,NE,45,2.2,5.8,72,0.00,BKN,,0.00,WeatherDisplay:10.37,2013-01-07 18:35:00,
2013-01-07 13:40:00,64.4,55.6,30.19,NE,45,2.6,5.8,73,0.00,BKN,,0.00,WeatherDisplay:10.37,2013-01-07 18:40:00,
2013-01-07 13:45:00,63.3,54.1,30.19,North,0,2.6,8.1,72,0.00,BKN,,0.00,WeatherDisplay:10.37,2013-01-07 18:45:00,
2013-01-07 13:50:00,62.4,54.0,30.19,NE,45,3.7,5.8,74,0.00,BKN,,0.00,WeatherDisplay:10.37,2013-01-07 18:50:00,
2013-01-07 13:55:00,62.2,54.2,30.19,North,0,1.0,5.8,75,0.00,BKN,,0.00,WeatherDisplay:10.37,2013-01-07 18:55:00,
2013-01-07 14:00:00,61.7,54.1,30.19,North,0,1.3,2.8,76,0.00,BKN,,0.00,WeatherDisplay:10.37,2013-01-07 19:00:00,
2013-01-07 14:05:00,61.7,54.1,30.19,North,0,1.3,5.8,76,0.00,BKN,,0.00,WeatherDisplay:10.37,2013-01-07 19:05:00,
2013-01-07 14:10:00,61.5,53.9,30.19,North,0,2.9,8.1,76,0.00,BKN,,0.00,WeatherDisplay:10.37,2013-01-07 19:10:00,
2013-01-07 14:15:00,61.9,54.2,30.19,North,0,2.1,5.8,76,0.00,BKN,,0.00,WeatherDisplay:10.37,2013-01-07 19:15:00,
2013-01-07 14:20:00,61.5,54.2,30.19,NE,45,2.2,5.8,77,0.00,BKN,,0.00,WeatherDisplay:10.37,2013-01-07 19:20:00,
2013-01-07 14:25:00,61.7,54.4,30.19,North,0,1.9,4.6,77,0.00,BKN,,0.00,WeatherDisplay:10.37,2013-01-07 19:25:00,
2013-01-07 14:30:00,61.7,54.4,30.19,North,0,2.6,5.8,77,0.00,BKN,,0.00,WeatherDisplay:10.37,2013-01-07 19:30:00,
2013-01-07 14:35:00,61.9,54.2,30.19,North,0,3.1,5.8,76,0.00,BKN,,0.00,WeatherDisplay:10.37,2013-01-07 19:35:00,
2013-01-07 14:40:00,61.9,54.6,30.19,North,0,3.0,11.5,77,0.00,BKN,,0.00,WeatherDisplay:10.37,2013-01-07 19:40:00,
2013-01-07 14:45:00,61.9,54.6,30.19,North,0,3.5,5.8,77,0.00,BKN,,0.00,WeatherDisplay:10.37,2013-01-07 19:45:00,
2013-01-07 14:50:00,61.7,54.4,30.19,North,0,3.0,8.1,77,0.00,BKN,,0.00,WeatherDisplay:10.37,2013-01-07 19:50:00,
2013-01-07 14:55:00,61.9,54.6,30.19,NE,45,3.3,5.8,77,0.00,BKN,,0.00,WeatherDisplay:10.37,2013-01-07 19:55:00,
2013-01-07 15:00:00,62.4,54.8,30.20,North,0,2.8,5.8,76,0.00,BKN,,0.00,WeatherDisplay:10.37,2013-01-07 20:00:00,
2013-01-07 15:05:00,62.2,54.2,30.20,North,0,2.8,8.1,75,0.00,BKN,,0.00,WeatherDisplay:10.37,2013-01-07 20:05:00,
2013-01-07 15:10:00,62.2,54.9,30.20,NE,45,1.7,8.1,77,0.00,BKN,,0.00,WeatherDisplay:10.37,2013-01-07 20:10:00,
2013-01-07 15:15:00,62.4,55.1,30.19,NE,45,1.6,5.8,77,0.00,BKN,,0.00,WeatherDisplay:10.37,2013-01-07 20:15:00,
2013-01-07 15:19:00,62.2,54.9,30.19,NE,45,1.5,5.8,77,0.00,BKN,,0.00,WeatherDisplay:10.37,2013-01-07 20:19:00,
2013-01-07 15:24:00,62.2,54.9,30.19,NE,45,1.7,4.6,77,0.00,BKN,,0.00,WeatherDisplay:10.37,2013-01-07 20:24:00,
2013-01-07 15:29:00,62.8,54.7,30.19,North,0,2.2,8.1,75,0.00,BKN,,0.00,WeatherDisplay:10.37,2013-01-07 20:29:00,
2013-01-07 15:34:00,62.2,54.6,30.19,North,0,1.0,5.8,76,0.00,BKN,,0.00,WeatherDisplay:10.37,2013-01-07 20:34:00,
2013-01-07 15:39:00,62.2,54.9,30.19,North,0,2.3,5.8,77,0.00,BKN,,0.00,WeatherDisplay:10.37,2013-01-07 20:39:00,
2013-01-07 15:44:00,62.2,54.9,30.19,NE,45,3.0,5.8,77,0.00,BKN,,0.00,WeatherDisplay:10.37,2013-01-07 20:44:00,
2013-01-07 15:49:00,62.1,54.8,30.19,NW,315,2.3,5.8,77,0.00,BKN,,0.00,WeatherDisplay:10.37,2013-01-07 20:49:00,
2013-01-07 15:54:00,61.9,54.6,30.19,North,0,1.6,4.6,77,0.00,BKN,,0.00,WeatherDisplay:10.37,2013-01-07 20:54:00,
2013-01-07 15:59:00,61.9,54.6,30.19,NE,45,2.8,6.9,77,0.00,BKN,,0.00,WeatherDisplay:10.37,2013-01-07 20:59:00,
2013-01-07 16:04:00,61.9,54.9,30.19,North,0,2.0,8.1,78,0.00,BKN,,0.00,WeatherDisplay:10.37,2013-01-07 21:04:00,
2013-01-07 16:09:00,61.7,55.1,30.19,North,0,3.5,11.5,79,0.00,BKN,,0.00,WeatherDisplay:10.37,2013-01-07 21:09:00,
2013-01-07 16:14:00,61.5,54.9,30.19,East,90,2.4,10.4,79,0.00,SCT,,0.00,WeatherDisplay:10.37,2013-01-07 21:14:00,
2013-01-07 16:19:00,61.3,54.8,30.19,North,0,2.7,8.1,79,0.00,SCT,,0.00,WeatherDisplay:10.37,2013-01-07 21:19:00,
2013-01-07 16:24:00,61.3,54.8,30.19,North,0,1.4,5.6,79,0.00,SCT,,0.00,WeatherDisplay:10.37,2013-01-07 21:24:00,
2013-01-07 16:29:00,61.3,54.4,30.19,North,0,2.8,5.8,78,0.00,SCT,,0.00,WeatherDisplay:10.37,2013-01-07 21:29:00,
2013-01-07 16:34:00,61.3,54.4,30.19,NE,45,2.6,5.8,78,0.00,SCT,,0.00,WeatherDisplay:10.37,2013-01-07 21:34:00,
2013-01-07 16:39:00,61.0,54.1,30.19,NE,45,2.7,8.1,78,0.00,SCT,,0.00,WeatherDisplay:10.37,2013-01-07 21:39:00,
2013-01-07 16:44:00,60.6,53.7,30.19,NE,45,2.2,6.9,78,0.00,SCT,,0.00,WeatherDisplay:10.37,2013-01-07 21:44:00,
2013-01-07 16:49:00,60.4,53.9,30.19,North,0,2.5,5.8,79,0.00,SCT,,0.00,WeatherDisplay:10.37,2013-01-07 21:49:00,
2013-01-07 16:54:00,60.3,53.7,30.19,NE,45,2.6,5.8,79,0.00,SCT,,0.00,WeatherDisplay:10.37,2013-01-07 21:54:00,
2013-01-07 16:59:00,59.7,53.5,30.20,NE,45,2.7,5.8,80,0.00,SCT,,0.00,WeatherDisplay:10.37,2013-01-07 21:59:00,
2013-01-07 17:04:00,59.5,53.4,30.20,North,0,3.0,5.8,80,0.00,SCT,,0.00,WeatherDisplay:10.37,2013-01-07 22:04:00,
2013-01-07 17:09:00,59.4,53.2,30.20,NE,45,2.8,5.8,80,0.00,SCT,,0.00,WeatherDisplay:10.37,2013-01-07 22:09:00,
2013-01-07 17:14:00,59.2,53.0,30.20,North,0,1.9,4.2,80,0.00,SCT,,0.00,WeatherDisplay:10.37,2013-01-07 22:14:00,
2013-01-07 17:19:00,58.8,53.0,30.20,NW,315,1.4,11.5,81,0.00,SCT,,0.00,WeatherDisplay:10.37,2013-01-07 22:19:00,
2013-01-07 17:24:00,58.6,52.8,30.20,North,0,2.3,8.1,81,0.00,SCT,,0.00,WeatherDisplay:10.37,2013-01-07 22:24:00,
2013-01-07 17:28:00,58.3,52.8,30.20,NE,45,1.5,5.8,82,0.00,SCT,,0.00,WeatherDisplay:10.37,2013-01-07 22:28:00,
2013-01-07 17:33:00,58.1,52.6,30.20,NE,45,1.8,5.8,82,0.00,SCT,,0.00,WeatherDisplay:10.37,2013-01-07 22:33:00,
2013-01-07 17:38:00,57.9,52.8,30.20,NE,45,2.3,8.1,83,0.00,SCT,,0.00,WeatherDisplay:10.37,2013-01-07 22:38:00,
2013-01-07 17:43:00,57.9,52.8,30.20,NE,45,1.0,5.8,83,0.00,SCT,,0.00,WeatherDisplay:10.37,2013-01-07 22:43:00,
2013-01-07 17:48:00,57.7,52.6,30.20,North,0,1.2,5.8,83,0.00,SCT,,0.00,WeatherDisplay:10.37,2013-01-07 22:48:00,
2013-01-07 17:53:00,57.6,52.4,30.21,NE,45,1.8,5.8,83,0.00,SCT,,0.00,WeatherDisplay:10.37,2013-01-07 22:53:00,
2013-01-07 17:58:00,57.6,52.4,30.21,North,0,0.7,5.8,83,0.00,SCT,,0.00,WeatherDisplay:10.37,2013-01-07 22:58:00,
2013-01-07 18:03:00,57.6,52.4,30.21,North,0,1.9,5.8,83,0.00,SCT,,0.00,WeatherDisplay:10.37,2013-01-07 23:03:00,
2013-01-07 18:08:00,57.4,52.6,30.21,North,0,2.2,5.8,84,0.00,SCT,,0.00,WeatherDisplay:10.37,2013-01-07 23:08:00,
2013-01-07 18:13:00,57.4,52.6,30.21,North,0,1.8,5.8,84,0.00,SCT,,0.00,WeatherDisplay:10.37,2013-01-07 23:13:00,
2013-01-07 18:18:00,57.4,52.6,30.21,NE,45,2.1,4.6,84,0.00,SCT,,0.00,WeatherDisplay:10.37,2013-01-07 23:18:00,
2013-01-07 18:23:00,57.4,52.6,30.21,North,0,1.9,5.8,84,0.00,SCT,,0.00,WeatherDisplay:10.37,2013-01-07 23:23:00,
2013-01-07 18:28:00,57.4,52.6,30.21,North,0,1.6,2.3,84,0.00,SCT,,0.00,WeatherDisplay:10.37,2013-01-07 23:28:00,
2013-01-07 18:33:00,57.2,52.4,30.21,NE,45,1.4,2.8,84,0.00,SCT,,0.00,WeatherDisplay:10.37,2013-01-07 23:33:00,
2013-01-07 18:38:00,57.2,52.4,30.22,North,0,1.7,5.8,84,0.00,SCT,,0.00,WeatherDisplay:10.37,2013-01-07 23:38:00,
2013-01-07 18:43:00,57.2,52.4,30.21,NE,45,2.0,5.8,84,0.00,SCT,,0.00,WeatherDisplay:10.37,2013-01-07 23:43:00,
2013-01-07 18:48:00,57.0,52.2,30.22,North,0,2.5,5.8,84,0.00,SCT,,0.00,WeatherDisplay:10.37,2013-01-07 23:48:00,
2013-01-07 18:53:00,57.0,52.2,30.22,North,0,1.5,5.8,84,0.00,SCT,,0.00,WeatherDisplay:10.37,2013-01-07 23:53:00,
2013-01-07 18:58:00,57.0,52.2,30.22,North,0,0.3,5.8,84,0.00,SCT,,0.00,WeatherDisplay:10.37,2013-01-07 23:58:00,
2013-01-07 19:03:00,56.8,52.1,30.22,NW,315,2.5,6.9,84,0.00,SCT,,0.00,WeatherDisplay:10.37,2013-01-08 00:03:00,
2013-01-07 19:08:00,57.0,52.6,30.22,North,0,2.8,5.8,85,0.00,SCT,,0.00,WeatherDisplay:10.37,2013-01-08 00:08:00,
2013-01-07 19:13:00,57.0,52.2,30.22,North,0,2.0,5.8,84,0.00,BKN,,0.00,WeatherDisplay:10.37,2013-01-08 00:13:00,
2013-01-07 19:18:00,56.8,52.4,30.21,NE,45,2.8,5.8,85,0.00,BKN,,0.00,WeatherDisplay:10.37,2013-01-08 00:18:00,
2013-01-07 19:23:00,56.8,52.4,30.21,North,0,1.6,4.6,85,0.00,BKN,,0.00,WeatherDisplay:10.37,2013-01-08 00:23:00,
2013-01-07 19:28:00,56.8,52.4,30.22,East,90,1.7,5.8,85,0.00,BKN,,0.00,WeatherDisplay:10.37,2013-01-08 00:28:00,
2013-01-07 19:33:00,56.8,52.4,30.22,NE,45,1.6,5.8,85,0.00,BKN,,0.00,WeatherDisplay:10.37,2013-01-08 00:33:00,
2013-01-07 19:38:00,56.8,52.4,30.23,North,0,1.2,5.8,85,0.00,BKN,,0.00,WeatherDisplay:10.37,2013-01-08 00:38:00,
2013-01-07 19:43:00,56.8,52.4,30.22,North,0,2.1,8.1,85,0.00,BKN,,0.00,WeatherDisplay:10.37,2013-01-08 00:43:00,
2013-01-07 19:48:00,56.8,52.4,30.22,NE,45,0.8,2.8,85,0.00,BKN,,0.00,WeatherDisplay:10.37,2013-01-08 00:48:00,
2013-01-07 19:53:00,56.8,52.4,30.22,NE,45,0.7,5.8,85,0.00,BKN,,0.00,WeatherDisplay:10.37,2013-01-08 00:53:00,
2013-01-07 19:58:00,56.8,52.4,30.22,North,0,1.8,5.8,85,0.00,BKN,,0.00,WeatherDisplay:10.37,2013-01-08 00:58:00,
2013-01-07 20:03:00,56.8,52.4,30.22,NE,45,1.7,5.8,85,0.00,BKN,,0.00,WeatherDisplay:10.37,2013-01-08 01:03:00,
2013-01-07 20:08:00,56.8,52.7,30.22,NW,315,2.3,5.8,86,0.00,BKN,,0.00,WeatherDisplay:10.37,2013-01-08 01:08:00,
2013-01-07 20:13:00,56.8,52.4,30.22,North,0,1.4,5.8,85,0.00,BKN,,0.00,WeatherDisplay:10.37,2013-01-08 01:13:00,
2013-01-07 20:18:00,56.8,52.4,30.22,NE,45,1.9,2.8,85,0.00,BKN,,0.00,WeatherDisplay:10.37,2013-01-08 01:18:00,
2013-01-07 20:23:00,56.8,52.4,30.22,North,0,0.7,5.8,85,0.00,BKN,,0.00,WeatherDisplay:10.37,2013-01-08 01:23:00,
2013-01-07 20:28:00,56.8,52.4,30.22,North,0,1.3,2.8,85,0.00,BKN,,0.00,WeatherDisplay:10.37,2013-01-08 01:28:00,
2013-01-07 20:33:00,56.8,52.4,30.22,North,0,1.7,4.6,85,0.00,BKN,,0.00,WeatherDisplay:10.37,2013-01-08 01:33:00,
2013-01-07 20:38:00,56.8,52.4,30.22,North,0,0.9,8.1,85,0.00,BKN,,0.00,WeatherDisplay:10.37,2013-01-08 01:38:00,
2013-01-07 20:43:00,57.0,52.9,30.22,NE,45,1.2,2.8,86,0.00,BKN,,0.00,WeatherDisplay:10.37,2013-01-08 01:43:00,
2013-01-07 20:48:00,57.0,52.9,30.22,NW,315,0.7,5.8,86,0.00,BKN,,0.00,WeatherDisplay:10.37,2013-01-08 01:48:00,
2013-01-07 20:53:00,57.0,52.9,30.22,North,0,1.9,2.3,86,0.00,BKN,,0.00,WeatherDisplay:10.37,2013-01-08 01:53:00,
2013-01-07 20:58:00,57.0,52.9,30.22,NE,45,1.2,2.3,86,0.00,BKN,,0.00,WeatherDisplay:10.37,2013-01-08 01:58:00,
2013-01-07 21:03:00,57.2,52.7,30.22,North,0,0.9,2.8,85,0.00,BKN,,0.00,WeatherDisplay:10.37,2013-01-08 02:03:00,
2013-01-07 21:08:00,57.2,52.7,30.22,North,0,0.6,5.8,85,0.00,BKN,,0.00,WeatherDisplay:10.37,2013-01-08 02:08:00,
2013-01-07 21:13:00,57.4,52.9,30.22,NE,45,2.1,5.8,85,0.00,BKN,,0.00,WeatherDisplay:10.37,2013-01-08 02:13:00,
2013-01-07 21:18:00,57.4,52.9,30.21,North,0,1.2,2.3,85,0.00,BKN,,0.00,WeatherDisplay:10.37,2013-01-08 02:18:00,
2013-01-07 21:23:00,57.4,52.9,30.22,North,0,0.1,2.3,85,0.00,BKN,,0.00,WeatherDisplay:10.37,2013-01-08 02:23:00,
2013-01-07 21:28:00,57.4,52.9,30.21,NE,45,1.2,2.8,85,0.00,BKN,,0.00,WeatherDisplay:10.37,2013-01-08 02:28:00,
2013-01-07 21:33:00,57.4,52.9,30.21,North,0,1.7,5.8,85,0.00,BKN,,0.00,WeatherDisplay:10.37,2013-01-08 02:33:00,
2013-01-07 21:38:00,57.4,52.9,30.21,North,0,0.7,2.8,85,0.00,BKN,,0.00,WeatherDisplay:10.37,2013-01-08 02:38:00,
2013-01-07 21:43:00,57.4,53.2,30.21,North,0,0.7,5.8,86,0.00,BKN,,0.00,WeatherDisplay:10.37,2013-01-08 02:43:00,
2013-01-07 21:48:00,57.4,53.2,30.21,North,0,1.1,5.8,86,0.00,BKN,,0.00,WeatherDisplay:10.37,2013-01-08 02:48:00,
2013-01-07 21:53:00,57.6,53.4,30.21,NE,45,1.4,5.8,86,0.00,BKN,,0.00,WeatherDisplay:10.37,2013-01-08 02:53:00,
2013-01-07 21:58:00,57.7,53.6,30.21,North,0,0.6,2.3,86,0.00,BKN,,0.00,WeatherDisplay:10.37,2013-01-08 02:58:00,
2013-01-07 22:03:00,57.7,53.6,30.21,NE,45,1.8,5.8,86,0.00,BKN,,0.00,WeatherDisplay:10.37,2013-01-08 03:03:00,
2013-01-07 22:08:00,57.9,53.8,30.21,NE,45,1.3,4.2,86,0.00,BKN,,0.00,WeatherDisplay:10.37,2013-01-08 03:08:00,
2013-01-07 22:13:00,57.9,53.8,30.21,NE,45,0.5,2.8,86,0.00,BKN,,0.00,WeatherDisplay:10.37,2013-01-08 03:13:00,
2013-01-07 22:18:00,57.9,53.8,30.21,NE,45,0.7,2.3,86,0.00,BKN,,0.00,WeatherDisplay:10.37,2013-01-08 03:18:00,
2013-01-07 22:23:00,57.9,53.8,30.21,NE,45,0.4,5.8,86,0.00,BKN,,0.00,WeatherDisplay:10.37,2013-01-08 03:23:00,
2013-01-07 22:28:00,57.9,53.8,30.21,NE,45,1.0,4.2,86,0.00,BKN,,0.00,WeatherDisplay:10.37,2013-01-08 03:28:00,
2013-01-07 22:33:00,58.1,53.9,30.21,NE,45,0.8,5.6,86,0.00,BKN,,0.00,WeatherDisplay:10.37,2013-01-08 03:33:00,
2013-01-07 22:38:00,58.1,53.9,30.21,North,0,0.0,0.0,86,0.00,BKN,,0.00,WeatherDisplay:10.37,2013-01-08 03:38:00,
2013-01-07 22:43:00,58.1,53.9,30.21,North,0,0.0,0.0,86,0.00,BKN,,0.00,WeatherDisplay:10.37,2013-01-08 03:43:00,
2013-01-07 22:48:00,58.1,53.9,30.21,North,0,0.4,4.2,86,0.00,BKN,,0.00,WeatherDisplay:10.37,2013-01-08 03:48:00,
2013-01-07 22:53:00,58.1,53.9,30.21,NE,45,0.1,2.8,86,0.00,BKN,,0.00,WeatherDisplay:10.37,2013-01-08 03:53:00,
2013-01-07 22:58:00,57.9,53.8,30.20,NE,45,2.4,5.8,86,0.00,BKN,,0.00,WeatherDisplay:10.37,2013-01-08 03:58:00,
2013-01-07 23:03:00,58.1,53.6,30.20,NE,45,0.4,2.3,85,0.00,BKN,,0.00,WeatherDisplay:10.37,2013-01-08 04:03:00,
2013-01-07 23:07:00,57.9,53.8,30.20,NE,45,0.3,2.8,86,0.00,BKN,,0.00,WeatherDisplay:10.37,2013-01-08 04:07:00,
2013-01-07 23:12:00,57.9,53.8,30.19,NE,45,0.0,1.1,86,0.00,BKN,,0.00,WeatherDisplay:10.37,2013-01-08 04:12:00,
2013-01-07 23:17:00,57.9,53.8,30.20,NE,45,0.0,0.0,86,0.00,BKN,,0.00,WeatherDisplay:10.37,2013-01-08 04:17:00,
2013-01-07 23:22:00,57.9,53.8,30.20,NE,45,0.2,2.3,86,0.00,BKN,,0.00,WeatherDisplay:10.37,2013-01-08 04:22:00,
2013-01-07 23:27:00,57.9,53.8,30.20,NE,45,0.0,0.0,86,0.00,BKN,,0.00,WeatherDisplay:10.37,2013-01-08 04:27:00,
2013-01-07 23:32:00,57.9,53.8,30.19,North,0,1.0,2.3,86,0.00,BKN,,0.00,WeatherDisplay:10.37,2013-01-08 04:32:00,
2013-01-07 23:37:00,57.9,53.8,30.19,NE,45,0.5,2.3,86,0.00,BKN,,0.00,WeatherDisplay:10.37,2013-01-08 04:37:00,
2013-01-07 23:42:00,57.9,53.8,30.19,NE,45,0.3,2.3,86,0.00,BKN,,0.00,WeatherDisplay:10.37,2013-01-08 04:42:00,
2013-01-07 23:47:00,57.9,53.8,30.19,NE,45,0.8,2.8,86,0.00,BKN,,0.00,WeatherDisplay:10.37,2013-01-08 04:47:00,
2013-01-07 23:52:00,57.9,53.8,30.19,North,0,0.2,1.1,86,0.00,BKN,,0.00,WeatherDisplay:10.37,2013-01-08 04:52:00,
2013-01-07 23:57:00,57.9,53.8,30.18,North,0,0.7,2.8,86,0.00,BKN,,0.00,WeatherDisplay:10.37,2013-01-08 04:57:00,